Time;durP1;ratioP1;P1;durP2;ratioP2;P2;SDS_P1;SDS_P2;PMS_P1;PMS_P2;Temp;Humidity;BMP_temperature;BMP_pressure;BME280_temperature;BME280_humidity;BME280_pressure;Samples;Min_cycle;Max_cycle;Signal;HPM_P1;HPM_P2
2023/06/04 00:00:34;;;;;;;7.83;5.33;;;;;;;;;;10476657;28;20295;-77
2023/06/04 00:05:34;;;;;;;8.40;5.45;;;;;;;;;;10474522;28;20040;-77
2023/06/04 00:10:35;;;;;;;6.50;4.78;;;;;;;;;;10472540;28;20296;-78
2023/06/04 00:15:35;;;;;;;6.70;4.93;;;;;;;;;;10474265;28;20291;-77
2023/06/04 00:20:35;;;;;;;10.63;5.25;;;;;;;;;;10475145;28;20016;-77
2023/06/04 00:25:36;;;;;;;12.95;6.03;;;;;;;;;;10477736;28;20045;-77
2023/06/04 00:30:36;;;;;;;6.35;4.57;;;;;;;;;;10476774;28;20345;-77
2023/06/04 00:35:36;;;;;;;6.95;4.97;;;;;;;;;;10466977;28;20361;-78
2023/06/04 00:40:36;;;;;;;11.98;5.30;;;;;;;;;;10471013;28;20044;-78
2023/06/04 00:45:37;;;;;;;8.55;4.97;;;;;;;;;;10468263;28;20048;-77
2023/06/04 00:50:38;;;;;;;7.40;5.05;;;;;;;;;;10470402;28;20024;-77
2023/06/04 00:55:38;;;;;;;7.88;5.13;;;;;;;;;;10472062;28;20059;-77
2023/06/04 01:00:39;;;;;;;13.20;6.95;;;;;;;;;;10474523;28;20211;-77
2023/06/04 01:05:57;;;;;;;11.82;7.72;;;;;;;;;;10469793;28;20028;-77
2023/06/04 01:10:57;;;;;;;10.77;8.82;;;;;;;;;;10469695;28;20032;-77
2023/06/04 01:15:59;;;;;;;14.55;9.90;;;;;;;;;;10476204;28;20036;-76
2023/06/04 01:21:02;;;;;;;13.00;8.80;;;;;;;;;;10474401;28;20037;-76
2023/06/04 01:26:03;;;;;;;17.80;10.80;;;;;;;;;;10473431;28;20040;-78
2023/06/04 01:31:07;;;;;;;17.45;10.68;;;;;;;;;;10471615;28;20321;-79
2023/06/04 01:36:10;;;;;;;14.05;9.43;;;;;;;;;;10469313;28;20031;-78
2023/06/04 01:41:10;;;;;;;13.88;8.35;;;;;;;;;;10478999;28;20017;-77
2023/06/04 01:46:11;;;;;;;10.60;6.67;;;;;;;;;;10458808;28;20357;-77
2023/06/04 01:51:11;;;;;;;7.00;5.00;;;;;;;;;;10490133;28;20381;-77
2023/06/04 01:56:12;;;;;;;4.15;3.67;;;;;;;;;;10476192;28;20023;-76
2023/06/04 02:01:13;;;;;;;8.40;3.60;;;;;;;;;;10469288;28;20317;-76
2023/06/04 02:06:13;;;;;;;5.53;2.73;;;;;;;;;;10474919;28;20025;-76
2023/06/04 02:11:13;;;;;;;3.78;2.83;;;;;;;;;;10480679;28;20180;-77
2023/06/04 02:16:14;;;;;;;5.40;3.87;;;;;;;;;;10488990;28;20313;-76
2023/06/04 02:21:14;;;;;;;6.85;3.30;;;;;;;;;;10495675;28;20044;-76
2023/06/04 02:26:15;;;;;;;5.43;2.97;;;;;;;;;;10494741;28;20049;-77
2023/06/04 02:31:15;;;;;;;3.85;3.45;;;;;;;;;;10495109;28;20051;-77
2023/06/04 02:36:17;;;;;;;5.22;4.10;;;;;;;;;;10495033;28;20066;-78
2023/06/04 02:41:17;;;;;;;5.15;4.13;;;;;;;;;;10480082;28;20023;-78
2023/06/04 02:46:17;;;;;;;4.53;3.70;;;;;;;;;;10503319;28;20025;-77
2023/06/04 02:51:18;;;;;;;6.90;4.22;;;;;;;;;;10503013;28;20016;-77
2023/06/04 02:56:18;;;;;;;4.38;3.28;;;;;;;;;;10503201;28;20024;-78
2023/06/04 03:01:22;;;;;;;5.55;3.78;;;;;;;;;;10502375;28;20294;-77
2023/06/04 03:06:22;;;;;;;7.32;4.15;;;;;;;;;;10502856;28;20047;-78
2023/06/04 03:11:23;;;;;;;5.90;3.72;;;;;;;;;;10502350;28;20025;-77
2023/06/04 03:16:23;;;;;;;7.13;3.65;;;;;;;;;;10502510;28;20039;-77
2023/06/04 03:21:24;;;;;;;5.13;3.63;;;;;;;;;;10502270;28;20028;-77
2023/06/04 03:26:26;;;;;;;5.45;4.15;;;;;;;;;;10501744;28;20053;-77
2023/06/04 03:31:26;;;;;;;9.65;3.35;;;;;;;;;;10501982;28;20307;-76
2023/06/04 03:36:31;;;;;;;5.38;3.75;;;;;;;;;;10501535;28;20044;-77
2023/06/04 03:41:31;;;;;;;5.53;4.03;;;;;;;;;;10501056;28;20020;-78
2023/06/04 03:46:33;;;;;;;4.93;3.70;;;;;;;;;;10509130;28;20020;-79
2023/06/04 03:51:34;;;;;;;5.65;3.95;;;;;;;;;;10499948;28;20047;-79
2023/06/04 03:56:35;;;;;;;4.75;4.03;;;;;;;;;;10485262;28;20214;-78
2023/06/04 04:01:35;;;;;;;5.45;3.83;;;;;;;;;;10497152;28;20027;-78
2023/06/04 04:06:36;;;;;;;4.85;3.60;;;;;;;;;;10500530;28;20024;-77
2023/06/04 04:11:37;;;;;;;5.68;3.95;;;;;;;;;;10483323;28;20349;-77
2023/06/04 04:16:37;;;;;;;8.38;4.38;;;;;;;;;;10500131;28;20095;-77
2023/06/04 04:21:37;;;;;;;6.68;4.45;;;;;;;;;;10499742;28;20290;-78
2023/06/04 04:26:38;;;;;;;5.93;4.47;;;;;;;;;;10499193;28;20044;-78
2023/06/04 04:31:38;;;;;;;4.95;3.95;;;;;;;;;;10499452;28;20274;-78
2023/06/04 04:36:40;;;;;;;4.30;3.80;;;;;;;;;;10499459;28;20078;-78
2023/06/04 04:41:40;;;;;;;8.38;4.32;;;;;;;;;;10510320;28;20032;-79
2023/06/04 04:46:40;;;;;;;8.57;4.65;;;;;;;;;;10499277;28;20033;-79
2023/06/04 04:51:41;;;;;;;6.32;4.95;;;;;;;;;;10498907;28;20029;-78
2023/06/04 04:56:41;;;;;;;10.63;4.83;;;;;;;;;;10499011;28;20052;-79
2023/06/04 05:01:41;;;;;;;7.40;4.65;;;;;;;;;;10480160;28;20024;-78
2023/06/04 05:06:41;;;;;;;6.93;4.85;;;;;;;;;;10496849;28;20119;-78
2023/06/04 05:11:42;;;;;;;10.35;4.95;;;;;;;;;;10479633;28;20012;-76
2023/06/04 05:16:42;;;;;;;8.68;5.20;;;;;;;;;;10497426;28;20032;-78
2023/06/04 05:21:43;;;;;;;9.55;5.53;;;;;;;;;;10497207;28;20326;-73
2023/06/04 05:26:44;;;;;;;11.77;5.72;;;;;;;;;;10496393;28;20051;-74
2023/06/04 05:31:44;;;;;;;10.27;6.15;;;;;;;;;;10494179;28;20012;-74
2023/06/04 05:36:44;;;;;;;9.87;5.73;;;;;;;;;;10491930;28;20032;-74
2023/06/04 05:41:45;;;;;;;8.13;5.00;;;;;;;;;;10494554;28;20333;-74
2023/06/04 05:46:45;;;;;;;8.50;5.50;;;;;;;;;;10494942;28;20365;-76
2023/06/04 05:51:45;;;;;;;14.82;6.35;;;;;;;;;;10494272;28;20299;-74
2023/06/04 05:56:46;;;;;;;19.45;7.57;;;;;;;;;;10493781;28;20036;-75
2023/06/04 06:01:47;;;;;;;7.22;5.45;;;;;;;;;;10491210;28;20356;-75
2023/06/04 06:06:48;;;;;;;8.85;6.10;;;;;;;;;;10495100;28;20024;-74
2023/06/04 06:11:48;;;;;;;11.77;5.70;;;;;;;;;;10485474;28;20032;-74
2023/06/04 06:16:49;;;;;;;12.73;5.20;;;;;;;;;;10495720;28;20036;-75
2023/06/04 06:21:50;;;;;;;11.05;6.72;;;;;;;;;;10495344;28;20047;-75
2023/06/04 06:26:50;;;;;;;10.85;6.18;;;;;;;;;;10495192;28;20322;-75
2023/06/04 06:31:51;;;;;;;12.25;6.15;;;;;;;;;;10489240;28;20056;-74
2023/06/04 06:36:52;;;;;;;8.77;5.40;;;;;;;;;;10496089;28;20318;-72
2023/06/04 06:41:52;;;;;;;12.43;5.47;;;;;;;;;;10481928;28;20024;-75
2023/06/04 06:46:52;;;;;;;8.07;4.93;;;;;;;;;;10498397;28;20099;-78
2023/06/04 06:51:52;;;;;;;14.15;6.07;;;;;;;;;;10484103;28;20025;-78
2023/06/04 06:56:53;;;;;;;10.20;5.15;;;;;;;;;;10477145;28;20037;-77
2023/06/04 07:01:53;;;;;;;7.60;5.20;;;;;;;;;;10469719;28;20115;-78
2023/06/04 07:06:54;;;;;;;6.97;4.95;;;;;;;;;;10497081;28;20313;-78
2023/06/04 07:11:54;;;;;;;12.67;4.97;;;;;;;;;;10491565;28;20028;-85
2023/06/04 07:16:54;;;;;;;6.65;4.78;;;;;;;;;;10478101;28;20290;-73
2023/06/04 07:21:55;;;;;;;13.13;5.10;;;;;;;;;;10484959;28;20032;-74
2023/06/04 07:26:56;;;;;;;9.80;5.07;;;;;;;;;;10481282;28;20044;-73
2023/06/04 07:31:56;;;;;;;10.02;5.60;;;;;;;;;;10496188;28;20301;-74
2023/06/04 07:36:56;;;;;;;13.03;5.43;;;;;;;;;;10497898;28;20032;-75
2023/06/04 07:41:56;;;;;;;10.10;6.15;;;;;;;;;;10500021;28;20239;-74
2023/06/04 07:46:58;;;;;;;10.30;6.65;;;;;;;;;;10481610;28;20032;-75
2023/06/04 07:51:58;;;;;;;12.88;5.70;;;;;;;;;;10499153;28;20044;-75
2023/06/04 07:56:59;;;;;;;12.88;5.50;;;;;;;;;;10498789;28;20024;-74
2023/06/04 08:01:59;;;;;;;9.00;4.95;;;;;;;;;;10503084;28;20077;-74
2023/06/04 08:07:00;;;;;;;10.40;5.72;;;;;;;;;;10494700;28;20016;-74
2023/06/04 08:12:00;;;;;;;12.43;5.88;;;;;;;;;;10505242;28;20020;-75
2023/06/04 08:17:01;;;;;;;10.68;5.55;;;;;;;;;;10496091;28;20028;-77
2023/06/04 08:22:01;;;;;;;13.75;6.35;;;;;;;;;;10494292;28;20098;-76
2023/06/04 08:27:02;;;;;;;9.45;5.07;;;;;;;;;;10502713;28;20067;-77
2023/06/04 08:32:03;;;;;;;10.20;6.20;;;;;;;;;;10500558;28;20353;-75
2023/06/04 08:37:04;;;;;;;10.75;5.68;;;;;;;;;;10508746;28;20333;-79
2023/06/04 08:42:15;;;;;;;9.23;5.47;;;;;;;;;;10507959;28;20104;-81
2023/06/04 08:47:16;;;;;;;11.60;6.45;;;;;;;;;;10497273;28;20214;-84
2023/06/04 08:52:17;;;;;;;12.18;6.20;;;;;;;;;;10489861;28;20055;-83
2023/06/04 08:57:20;;;;;;;14.40;6.72;;;;;;;;;;10502236;28;20027;-81
2023/06/04 09:02:21;;;;;;;11.70;6.10;;;;;;;;;;10496385;28;20031;-77
2023/06/04 09:07:21;;;;;;;11.97;6.30;;;;;;;;;;10501580;28;20024;-80
2023/06/04 09:12:23;;;;;;;10.77;5.83;;;;;;;;;;10482636;28;20016;-79
2023/06/04 09:17:23;;;;;;;11.70;6.05;;;;;;;;;;10501856;28;20013;-74
2023/06/04 09:22:33;;;;;;;9.20;5.80;;;;;;;;;;10488761;28;20314;-74
2023/06/04 09:27:37;;;;;;;12.38;5.65;;;;;;;;;;10499863;28;20045;-77
2023/06/04 09:32:38;;;;;;;12.07;5.38;;;;;;;;;;10514089;28;20218;-79
2023/06/04 09:37:41;;;;;;;12.30;5.95;;;;;;;;;;10496529;28;20092;-77
2023/06/04 09:42:45;;;;;;;11.80;7.30;;;;;;;;;;10500061;28;20207;-73
2023/06/04 09:47:46;;;;;;;16.42;6.32;;;;;;;;;;10501686;28;20021;-72
2023/06/04 09:52:46;;;;;;;13.33;6.83;;;;;;;;;;10492472;28;20291;-73
2023/06/04 09:57:48;;;;;;;15.32;6.45;;;;;;;;;;10490593;28;20040;-78
2023/06/04 10:02:48;;;;;;;12.52;5.75;;;;;;;;;;10504933;28;20099;-78
2023/06/04 10:07:50;;;;;;;10.57;5.78;;;;;;;;;;10470269;28;20039;-74
2023/06/04 10:12:54;;;;;;;8.18;4.20;;;;;;;;;;10488619;28;20067;-72
2023/06/04 10:17:55;;;;;;;8.85;4.35;;;;;;;;;;10489837;28;20062;-71
2023/06/04 10:22:56;;;;;;;7.60;4.18;;;;;;;;;;10492987;28;20047;-73
2023/06/04 10:27:56;;;;;;;9.27;4.07;;;;;;;;;;10492873;28;20028;-73
2023/06/04 10:32:57;;;;;;;8.18;4.93;;;;;;;;;;10492130;28;20065;-73
2023/06/04 10:38:19;;;;;;;9.70;5.10;;;;;;;;;;10488598;28;20334;-72
2023/06/04 10:43:20;;;;;;;7.05;4.88;;;;;;;;;;10498343;28;20565;-71
2023/06/04 10:48:20;;;;;;;7.47;4.50;;;;;;;;;;10495595;28;20082;-70
2023/06/04 10:53:21;;;;;;;6.43;4.18;;;;;;;;;;10491537;28;20015;-71
2023/06/04 10:58:31;;;;;;;15.02;5.70;;;;;;;;;;10484571;28;20049;-71
2023/06/04 11:03:36;;;;;;;9.38;5.13;;;;;;;;;;10490674;28;20029;-70
2023/06/04 11:08:40;;;;;;;10.85;5.80;;;;;;;;;;10492730;28;20307;-70
2023/06/04 11:13:41;;;;;;;7.72;5.60;;;;;;;;;;10500357;28;20048;-71
2023/06/04 11:18:41;;;;;;;8.05;5.75;;;;;;;;;;10493127;28;20028;-70
2023/06/04 11:23:42;;;;;;;6.87;5.67;;;;;;;;;;10494632;28;20040;-71
2023/06/04 11:28:42;;;;;;;13.30;6.38;;;;;;;;;;10496102;28;20209;-71
2023/06/04 11:33:46;;;;;;;13.80;6.40;;;;;;;;;;10502578;28;20028;-71
2023/06/04 11:38:53;;;;;;;9.35;6.00;;;;;;;;;;10492998;28;20320;-71
2023/06/04 11:43:55;;;;;;;11.52;5.93;;;;;;;;;;10501499;28;20226;-71
2023/06/04 11:48:55;;;;;;;9.02;6.60;;;;;;;;;;10500362;28;20322;-70
2023/06/04 11:54:04;;;;;;;10.80;7.00;;;;;;;;;;10494588;28;20115;-70
2023/06/04 11:59:06;;;;;;;11.45;6.95;;;;;;;;;;10494254;28;20950;-72
2023/06/04 12:04:17;;;;;;;8.15;6.53;;;;;;;;;;10508728;28;20013;-71
2023/06/04 12:09:24;;;;;;;14.70;6.40;;;;;;;;;;10506284;28;20027;-72
2023/06/04 12:14:24;;;;;;;10.18;6.25;;;;;;;;;;10500756;28;20206;-72
2023/06/04 12:19:26;;;;;;;13.93;6.87;;;;;;;;;;10503419;28;20035;-72
2023/06/04 12:24:26;;;;;;;11.13;7.53;;;;;;;;;;10506182;28;20048;-71
2023/06/04 12:29:26;;;;;;;9.98;7.38;;;;;;;;;;10493679;28;20046;-71
2023/06/04 12:34:26;;;;;;;8.67;7.17;;;;;;;;;;10491570;28;20028;-71
2023/06/04 12:39:27;;;;;;;11.77;7.22;;;;;;;;;;10494246;28;20360;-71
2023/06/04 12:44:27;;;;;;;11.98;7.25;;;;;;;;;;10496612;28;20353;-73
2023/06/04 12:49:27;;;;;;;12.30;7.40;;;;;;;;;;10497196;28;20233;-72
2023/06/04 12:54:28;;;;;;;12.45;7.38;;;;;;;;;;10497565;28;20362;-71
2023/06/04 12:59:28;;;;;;;8.90;7.20;;;;;;;;;;10504520;28;20363;-71
2023/06/04 13:04:28;;;;;;;10.68;6.50;;;;;;;;;;10493821;28;20028;-72
2023/06/04 13:09:29;;;;;;;9.23;6.53;;;;;;;;;;10491841;28;20303;-72
2023/06/04 13:14:32;;;;;;;9.37;6.10;;;;;;;;;;10495210;28;20044;-72
2023/06/04 13:19:34;;;;;;;8.15;6.10;;;;;;;;;;10493037;28;20126;-70
2023/06/04 13:24:35;;;;;;;11.80;6.00;;;;;;;;;;10496646;28;20189;-71
2023/06/04 13:29:35;;;;;;;6.68;5.85;;;;;;;;;;10491278;28;20074;-71
2023/06/04 13:34:35;;;;;;;9.43;5.80;;;;;;;;;;10500347;28;20188;-72
2023/06/04 13:39:35;;;;;;;9.80;6.07;;;;;;;;;;10498339;28;20353;-72
2023/06/04 13:44:36;;;;;;;9.27;6.10;;;;;;;;;;10489674;28;20027;-72
2023/06/04 13:49:36;;;;;;;9.73;6.40;;;;;;;;;;10501099;28;20243;-72
2023/06/04 13:54:36;;;;;;;15.25;8.35;;;;;;;;;;10491575;28;20027;-75
2023/06/04 13:59:37;;;;;;;9.97;6.37;;;;;;;;;;10506561;28;20293;-72
2023/06/04 14:04:37;;;;;;;7.25;6.00;;;;;;;;;;10495902;28;20054;-73
2023/06/04 14:09:37;;;;;;;8.55;6.75;;;;;;;;;;10493919;28;20046;-76
2023/06/04 14:14:38;;;;;;;12.77;7.60;;;;;;;;;;10502111;28;20270;-75
2023/06/04 14:19:41;;;;;;;9.05;6.57;;;;;;;;;;10491155;28;20474;-76
2023/06/04 14:24:42;;;;;;;8.30;6.32;;;;;;;;;;10498466;28;20103;-73
2023/06/04 14:29:42;;;;;;;11.52;7.93;;;;;;;;;;10494909;28;20321;-72
2023/06/04 14:34:42;;;;;;;10.32;6.88;;;;;;;;;;10496524;28;20259;-72
2023/06/04 14:39:42;;;;;;;10.52;6.78;;;;;;;;;;10494906;28;20027;-73
2023/06/04 14:44:43;;;;;;;10.40;6.53;;;;;;;;;;10497706;28;20048;-73
2023/06/04 14:49:43;;;;;;;10.80;7.43;;;;;;;;;;10502152;28;20047;-71
2023/06/04 14:54:43;;;;;;;12.65;6.38;;;;;;;;;;10496906;28;20024;-74
2023/06/04 14:59:43;;;;;;;9.80;6.25;;;;;;;;;;10507792;28;20127;-77
2023/06/04 15:04:44;;;;;;;11.27;6.17;;;;;;;;;;10497584;28;20017;-74
2023/06/04 15:09:47;;;;;;;11.70;6.20;;;;;;;;;;10492793;28;20015;-78
2023/06/04 15:14:47;;;;;;;10.40;6.78;;;;;;;;;;10488445;28;20210;-82
2023/06/04 15:19:48;;;;;;;8.47;6.33;;;;;;;;;;10495356;28;20024;-80
2023/06/04 15:24:48;;;;;;;15.43;6.75;;;;;;;;;;10495047;28;20040;-75
2023/06/04 15:29:48;;;;;;;11.48;6.93;;;;;;;;;;10489535;28;20025;-77
2023/06/04 15:34:49;;;;;;;9.20;6.82;;;;;;;;;;10496204;28;20027;-76
2023/06/04 15:39:49;;;;;;;14.38;7.45;;;;;;;;;;10502639;28;20306;-73
2023/06/04 15:44:50;;;;;;;8.30;6.60;;;;;;;;;;10502710;28;20020;-76
2023/06/04 15:49:50;;;;;;;12.93;6.73;;;;;;;;;;10503067;28;20235;-74
2023/06/04 15:54:50;;;;;;;12.77;6.93;;;;;;;;;;10506030;28;20231;-72
2023/06/04 15:59:50;;;;;;;14.55;7.32;;;;;;;;;;10497362;28;20035;-72
2023/06/04 16:04:51;;;;;;;9.20;7.30;;;;;;;;;;10501831;28;20204;-72
2023/06/04 16:09:51;;;;;;;10.75;9.15;;;;;;;;;;10507301;28;20024;-75
2023/06/04 16:14:51;;;;;;;10.90;7.70;;;;;;;;;;10503480;28;20058;-77
2023/06/04 16:19:51;;;;;;;10.57;7.65;;;;;;;;;;10505355;28;20020;-72
2023/06/04 16:24:52;;;;;;;9.88;7.10;;;;;;;;;;10500702;28;20055;-73
2023/06/04 16:29:52;;;;;;;10.77;7.20;;;;;;;;;;10507198;28;20242;-73
2023/06/04 16:34:52;;;;;;;12.18;6.07;;;;;;;;;;10508442;28;20095;-76
2023/06/04 16:39:53;;;;;;;12.27;6.40;;;;;;;;;;10502003;28;20033;-76
2023/06/04 16:44:53;;;;;;;8.53;6.20;;;;;;;;;;10507534;28;20024;-75
2023/06/04 16:49:54;;;;;;;10.15;7.10;;;;;;;;;;10514346;28;20236;-80
2023/06/04 16:54:55;;;;;;;10.90;7.93;;;;;;;;;;10489158;28;20321;-73
2023/06/04 16:59:55;;;;;;;11.93;7.27;;;;;;;;;;10500530;28;20229;-73
2023/06/04 17:04:56;;;;;;;10.37;7.97;;;;;;;;;;10491010;28;20289;-67
2023/06/04 17:09:57;;;;;;;11.93;7.95;;;;;;;;;;10501794;28;20021;-69
2023/06/04 17:14:57;;;;;;;9.97;8.07;;;;;;;;;;10503162;28;20028;-74
2023/06/04 17:19:57;;;;;;;11.10;8.43;;;;;;;;;;10503310;28;20043;-74
2023/06/04 17:24:58;;;;;;;10.93;8.17;;;;;;;;;;10498461;28;20032;-74
2023/06/04 17:29:58;;;;;;;15.05;8.23;;;;;;;;;;10500845;28;20038;-74
2023/06/04 17:34:59;;;;;;;11.18;7.65;;;;;;;;;;10511089;28;20031;-75
2023/06/04 17:39:59;;;;;;;10.75;7.50;;;;;;;;;;10488605;28;20028;-75
2023/06/04 17:45:07;;;;;;;11.80;5.03;;;;;;;;;;10501082;28;20028;-74
2023/06/04 17:50:10;;;;;;;7.68;4.57;;;;;;;;;;10485782;28;20698;-74
2023/06/04 17:55:11;;;;;;;5.35;3.88;;;;;;;;;;10491393;28;20020;-74
2023/06/04 18:00:11;;;;;;;6.65;4.15;;;;;;;;;;10492993;28;20027;-75
2023/06/04 18:05:11;;;;;;;6.78;3.95;;;;;;;;;;10479604;28;20043;-74
2023/06/04 18:10:14;;;;;;;5.93;3.60;;;;;;;;;;10494396;28;20321;-74
2023/06/04 18:15:14;;;;;;;5.18;3.53;;;;;;;;;;10500788;28;20052;-74
2023/06/04 18:20:15;;;;;;;7.75;4.53;;;;;;;;;;10488813;28;20313;-74
2023/06/04 18:25:15;;;;;;;5.03;4.18;;;;;;;;;;10497608;28;20033;-78
2023/06/04 18:30:16;;;;;;;7.50;4.07;;;;;;;;;;10489305;28;20033;-76
2023/06/04 18:35:16;;;;;;;6.28;4.03;;;;;;;;;;10496162;28;20303;-77
2023/06/04 18:40:17;;;;;;;5.53;4.10;;;;;;;;;;10487251;28;20129;-76
2023/06/04 18:45:17;;;;;;;8.23;4.72;;;;;;;;;;10494392;28;20066;-78
2023/06/04 18:50:17;;;;;;;5.93;4.30;;;;;;;;;;10491222;28;20224;-78
2023/06/04 18:55:18;;;;;;;6.23;4.93;;;;;;;;;;10512487;28;20222;-75
2023/06/04 19:00:20;;;;;;;6.38;5.43;;;;;;;;;;10493283;28;20024;-74
2023/06/04 19:05:21;;;;;;;6.75;4.78;;;;;;;;;;10484407;28;20028;-74
2023/06/04 19:10:22;;;;;;;7.30;5.00;;;;;;;;;;10496052;28;20019;-75
2023/06/04 19:15:22;;;;;;;9.73;5.40;;;;;;;;;;10484572;28;20020;-76
2023/06/04 19:20:22;;;;;;;10.10;5.87;;;;;;;;;;10481633;28;20228;-74
2023/06/04 19:25:23;;;;;;;9.25;6.03;;;;;;;;;;10490192;28;20028;-75
2023/06/04 19:30:24;;;;;;;12.63;7.03;;;;;;;;;;10498443;28;20202;-73
2023/06/04 19:35:24;;;;;;;11.65;7.00;;;;;;;;;;10493498;28;20028;-77
2023/06/04 19:40:25;;;;;;;12.75;8.85;;;;;;;;;;10506916;28;20031;-77
2023/06/04 19:45:25;;;;;;;12.98;8.05;;;;;;;;;;10493921;28;20231;-77
2023/06/04 19:50:25;;;;;;;12.60;9.13;;;;;;;;;;10480316;28;20062;-77
2023/06/04 19:55:26;;;;;;;13.20;8.30;;;;;;;;;;10505260;28;20278;-75
2023/06/04 20:00:26;;;;;;;14.13;9.57;;;;;;;;;;10500649;28;20017;-76
2023/06/04 20:05:26;;;;;;;10.65;8.38;;;;;;;;;;10500778;28;20295;-77
2023/06/04 20:10:26;;;;;;;11.75;8.93;;;;;;;;;;10499231;28;20028;-77
2023/06/04 20:15:27;;;;;;;13.02;8.45;;;;;;;;;;10485592;28;20020;-77
2023/06/04 20:20:27;;;;;;;12.88;8.73;;;;;;;;;;10497966;28;20330;-76
2023/06/04 20:25:27;;;;;;;16.10;9.73;;;;;;;;;;10498021;28;20059;-76
2023/06/04 20:30:29;;;;;;;13.52;9.32;;;;;;;;;;10499025;28;20032;-76
2023/06/04 20:35:29;;;;;;;21.45;10.30;;;;;;;;;;10499040;28;20314;-75
2023/06/04 20:40:29;;;;;;;16.43;10.87;;;;;;;;;;10499022;28;20187;-75
2023/06/04 20:45:30;;;;;;;16.27;10.60;;;;;;;;;;10498790;28;20012;-75
2023/06/04 20:50:30;;;;;;;14.85;11.65;;;;;;;;;;10498584;28;20066;-76
2023/06/04 20:55:31;;;;;;;16.92;11.48;;;;;;;;;;10498852;28;20054;-76
2023/06/04 21:00:31;;;;;;;14.48;12.18;;;;;;;;;;10498089;28;20025;-76
2023/06/04 21:05:31;;;;;;;22.10;14.40;;;;;;;;;;10498016;28;20294;-76
2023/06/04 21:10:32;;;;;;;21.02;12.07;;;;;;;;;;10497861;28;20587;-75
2023/06/04 21:15:32;;;;;;;16.30;11.93;;;;;;;;;;10477836;28;20031;-76
2023/06/04 21:20:32;;;;;;;16.02;12.25;;;;;;;;;;10497838;28;20269;-76
2023/06/04 21:25:33;;;;;;;16.98;11.98;;;;;;;;;;10480229;28;20105;-76
2023/06/04 21:30:33;;;;;;;19.38;12.77;;;;;;;;;;10498182;28;20031;-75
2023/06/04 21:35:34;;;;;;;19.52;12.88;;;;;;;;;;10498320;28;20341;-75
2023/06/04 21:40:34;;;;;;;20.08;14.02;;;;;;;;;;10497885;28;20021;-75
2023/06/04 21:45:34;;;;;;;20.08;13.77;;;;;;;;;;10496882;28;20032;-76
2023/06/04 21:50:34;;;;;;;21.92;14.40;;;;;;;;;;10497034;28;20344;-75
2023/06/04 21:55:35;;;;;;;26.95;16.23;;;;;;;;;;10497139;28;20303;-75
2023/06/04 22:00:35;;;;;;;22.83;12.40;;;;;;;;;;10497292;28;20025;-77
2023/06/04 22:05:36;;;;;;;21.13;15.00;;;;;;;;;;10496766;28;20344;-76
2023/06/04 22:10:36;;;;;;;21.70;14.53;;;;;;;;;;10497652;28;20015;-76
2023/06/04 22:15:36;;;;;;;19.48;13.88;;;;;;;;;;10496799;28;20320;-76
2023/06/04 22:20:36;;;;;;;21.60;14.97;;;;;;;;;;10496581;28;20463;-76
2023/06/04 22:25:37;;;;;;;19.63;13.90;;;;;;;;;;10496536;28;20097;-75
2023/06/04 22:30:37;;;;;;;21.55;12.55;;;;;;;;;;10472038;28;20322;-75
2023/06/04 22:35:37;;;;;;;23.27;14.63;;;;;;;;;;10469150;28;20020;-76
2023/06/04 22:40:37;;;;;;;21.40;14.07;;;;;;;;;;10496611;28;20019;-76
2023/06/04 22:45:40;;;;;;;20.42;14.13;;;;;;;;;;10511784;28;20024;-76
2023/06/04 22:50:44;;;;;;;23.48;14.45;;;;;;;;;;10495857;28;20364;-76
2023/06/04 22:55:44;;;;;;;27.58;15.27;;;;;;;;;;10511374;28;20017;-76
2023/06/04 23:00:48;;;;;;;24.27;14.50;;;;;;;;;;10503727;28;20044;-76
2023/06/04 23:05:49;;;;;;;25.67;14.77;;;;;;;;;;10509391;28;20611;-76
2023/06/04 23:10:49;;;;;;;22.57;14.60;;;;;;;;;;10503958;28;20024;-75
2023/06/04 23:15:50;;;;;;;20.70;12.98;;;;;;;;;;10503712;28;20127;-76
2023/06/04 23:20:50;;;;;;;18.25;12.93;;;;;;;;;;10503028;28;20244;-76
2023/06/04 23:25:50;;;;;;;20.17;12.68;;;;;;;;;;10503574;28;20082;-76
2023/06/04 23:30:51;;;;;;;16.70;12.57;;;;;;;;;;10502458;28;20024;-77
2023/06/04 23:35:51;;;;;;;17.50;12.52;;;;;;;;;;10503253;28;20034;-75
2023/06/04 23:40:51;;;;;;;22.10;14.17;;;;;;;;;;10535485;28;20095;-76
2023/06/04 23:45:51;;;;;;;20.20;13.57;;;;;;;;;;10489607;28;20020;-75
2023/06/04 23:50:52;;;;;;;22.10;13.38;;;;;;;;;;10499383;28;20305;-77
2023/06/04 23:55:52;;;;;;;27.10;13.25;;;;;;;;;;10499471;28;20025;-77
